Tabellarische Übersicht vom Samstag, den 31.07.2021

Oder anderes Datum wählen:






max 20,5°C 78,0% 14,0°C 1007,9hPa 20,0°C 0,0km/h (0Bft) 0,0km/h 0° (N) ∑0,0l/m² 71,000klx ∑0,0min
min 16,3°C 63,0% 11,3°C 1005,4hPa 16,0°C 0,0km/h (0Bft) 0,0km/h 0° (N) ∑0,0l/m² 0,000klx ∑0,0min
Ø 17,6°C 72,0% 12,4°C 1006,5hPa 18,0°C 0,0km/h (0Bft) 0,0km/h 0° (N) ∑0,0l/m² 23,000klx ∑0,0min
Zeit Temperatur Luftfeuchte Taupunkt Luftdruck Windchill Windböen Windgeschwindigkeit Windrichtung Regen Helligkeit Regenzeit
14:30 20,4°C 63,8% 13,3°C 1007,9hPa 20,4°C 0,0km/h (0Bft) 0,0km/h 0,0l/m² 42,604klx 0,0min
14:25 20,5°C 63,9% 13,4°C 1007,9hPa 20,5°C 0,0km/h (0Bft) 0,0km/h 0,0l/m² 44,119klx 0,0min
14:20 20,4°C 63,4% 13,2°C 1007,8hPa 20,4°C 0,0km/h (0Bft) 0,0km/h 0,0l/m² 39,247klx 0,0min
14:15 20,4°C 63,9% 13,3°C 1007,8hPa 20,4°C 0,0km/h (0Bft) 0,0km/h 0,0l/m² 44,467klx 0,0min
14:10 20,3°C 64,1% 13,3°C 1007,8hPa 20,3°C 0,0km/h (0Bft) 0,0km/h 0,0l/m² 45,937klx 0,0min
14:05 20,0°C 64,4% 13,1°C 1007,8hPa 20,0°C 0,0km/h (0Bft) 0,0km/h 0,0l/m² 38,753klx 0,0min
14:00 19,9°C 63,1% 12,7°C 1007,8hPa 19,9°C 0,0km/h (0Bft) 0,0km/h 0,0l/m² 44,384klx 0,0min
13:55 19,9°C 64,4% 13,0°C 1007,9hPa 19,9°C 0,0km/h (0Bft) 0,0km/h 0,0l/m² 42,745klx 0,0min
13:50 19,7°C 64,6% 12,8°C 1007,8hPa 19,7°C 0,0km/h (0Bft) 0,0km/h 0,0l/m² 46,159klx 0,0min
13:45 19,6°C 65,4% 12,9°C 1007,8hPa 19,6°C 0,0km/h (0Bft) 0,0km/h 0,0l/m² 37,196klx 0,0min
13:40 19,3°C 66,6% 12,9°C 1007,8hPa 19,3°C 0,0km/h (0Bft) 0,0km/h 0,0l/m² 27,974klx 0,0min
13:35 19,3°C 66,6% 12,9°C 1007,9hPa 19,3°C 0,0km/h (0Bft) 0,0km/h 0,0l/m² 18,398klx 0,0min
13:30 19,5°C 67,5% 13,3°C 1007,8hPa 19,5°C 0,0km/h (0Bft) 0,0km/h 0,0l/m² 17,097klx 0,0min
13:25 19,8°C 67,3% 13,5°C 1007,7hPa 19,8°C 0,0km/h (0Bft) 0,0km/h 0,0l/m² 22,660klx 0,0min
13:20 19,7°C 67,7% 13,6°C 1007,7hPa 19,7°C 0,0km/h (0Bft) 0,0km/h 0,0l/m² 38,490klx 0,0min
13:15 19,5°C 66,7% 13,2°C 1007,6hPa 19,5°C 0,0km/h (0Bft) 0,0km/h 0,0l/m² 35,773klx 0,0min
13:10 19,7°C 65,4% 13,0°C 1007,6hPa 19,7°C 0,0km/h (0Bft) 0,0km/h 0,0l/m² 31,896klx 0,0min
13:05 20,0°C 64,0% 13,0°C 1007,6hPa 20,0°C 0,0km/h (0Bft) 0,0km/h 0,0l/m² 56,806klx 0,0min
13:00 20,1°C 65,2% 13,3°C 1007,6hPa 20,1°C 0,0km/h (0Bft) 0,0km/h 0,0l/m² 70,810klx 0,0min
12:55 19,8°C 67,4% 13,6°C 1007,6hPa 19,8°C 0,0km/h (0Bft) 0,0km/h 0,0l/m² 59,562klx 0,0min
12:50 19,6°C 69,6% 13,9°C 1007,6hPa 19,6°C 0,0km/h (0Bft) 0,0km/h 0,0l/m² 36,415klx 0,0min
12:45 19,8°C 68,3% 13,7°C 1007,5hPa 19,8°C 0,0km/h (0Bft) 0,0km/h 0,0l/m² 29,881klx 0,0min
12:40 19,9°C 68,6% 14,0°C 1007,6hPa 19,9°C 0,0km/h (0Bft) 0,0km/h 0,0l/m² 59,917klx 0,0min
12:35 19,6°C 69,4% 13,8°C 1007,5hPa 19,6°C 0,0km/h (0Bft) 0,0km/h 0,0l/m² 70,460klx 0,0min
12:30 19,1°C 70,3% 13,5°C 1007,5hPa 19,1°C 0,0km/h (0Bft) 0,0km/h 0,0l/m² 40,306klx 0,0min
12:25 18,8°C 71,6% 13,6°C 1007,5hPa 18,8°C 0,0km/h (0Bft) 0,0km/h 0,0l/m² 46,075klx 0,0min
12:20 18,6°C 71,6% 13,4°C 1007,5hPa 18,6°C 0,0km/h (0Bft) 0,0km/h 0,0l/m² 22,145klx 0,0min
12:15 18,8°C 70,9% 13,4°C 1007,4hPa 18,8°C 0,0km/h (0Bft) 0,0km/h 0,0l/m² 26,249klx 0,0min
12:10 18,6°C 71,1% 13,3°C 1007,4hPa 18,6°C 0,0km/h (0Bft) 0,0km/h 0,0l/m² 33,345klx 0,0min
12:05 18,5°C 70,9% 13,1°C 1007,4hPa 18,5°C 0,0km/h (0Bft) 0,0km/h 0,0l/m² 18,598klx 0,0min
12:00 18,7°C 69,3% 12,9°C 1007,3hPa 18,7°C 0,0km/h (0Bft) 0,0km/h 0,0l/m² 15,835klx 0,0min
11:55 18,9°C 68,2% 12,9°C 1007,3hPa 18,9°C 0,0km/h (0Bft) 0,0km/h 0,0l/m² 33,896klx 0,0min
11:50 18,7°C 69,8% 13,1°C 1007,3hPa 18,7°C 0,0km/h (0Bft) 0,0km/h 0,0l/m² 45,066klx 0,0min
11:45 18,3°C 70,6% 12,8°C 1007,3hPa 18,3°C 0,0km/h (0Bft) 0,0km/h 0,0l/m² 26,669klx 0,0min
11:40 18,2°C 72,0% 13,0°C 1007,3hPa 18,2°C 0,0km/h (0Bft) 0,0km/h 0,0l/m² 15,630klx 0,0min
11:35 18,2°C 70,5% 12,7°C 1007,3hPa 18,2°C 0,0km/h (0Bft) 0,0km/h 0,0l/m² 18,089klx 0,0min
11:30 18,2°C 70,4% 12,7°C 1007,2hPa 18,2°C 0,0km/h (0Bft) 0,0km/h 0,0l/m² 14,434klx 0,0min
11:25 18,3°C 70,1% 12,7°C 1007,2hPa 18,3°C 0,0km/h (0Bft) 0,0km/h 0,0l/m² 20,439klx 0,0min
11:20 18,5°C 69,8% 12,9°C 1007,2hPa 18,5°C 0,0km/h (0Bft) 0,0km/h 0,0l/m² 27,471klx 0,0min
11:15 18,4°C 70,0% 12,8°C 1007,2hPa 18,4°C 0,0km/h (0Bft) 0,0km/h 0,0l/m² 35,981klx 0,0min
11:10 18,4°C 70,2% 12,9°C 1007,1hPa 18,4°C 0,0km/h (0Bft) 0,0km/h 0,0l/m² 19,321klx 0,0min
11:05 18,9°C 69,3% 13,1°C 1007,1hPa 18,9°C 0,0km/h (0Bft) 0,0km/h 0,0l/m² 23,762klx 0,0min
11:00 19,1°C 68,6% 13,2°C 1007,1hPa 19,1°C 0,0km/h (0Bft) 0,0km/h 0,0l/m² 59,907klx 0,0min
10:55 18,3°C 70,3% 12,8°C 1007,0hPa 18,3°C 0,0km/h (0Bft) 0,0km/h 0,0l/m² 43,884klx 0,0min
10:50 18,3°C 70,7% 12,9°C 1007,1hPa 18,3°C 0,0km/h (0Bft) 0,0km/h 0,0l/m² 32,464klx 0,0min
10:45 18,3°C 70,6% 12,8°C 1007,0hPa 18,3°C 0,0km/h (0Bft) 0,0km/h 0,0l/m² 34,703klx 0,0min
10:40 18,5°C 69,6% 12,9°C 1007,1hPa 18,5°C 0,0km/h (0Bft) 0,0km/h 0,0l/m² 27,699klx 0,0min
10:35 18,9°C 68,7% 13,0°C 1007,0hPa 18,9°C 0,0km/h (0Bft) 0,0km/h 0,0l/m² 61,215klx 0,0min
10:30 18,4°C 69,3% 12,7°C 1007,0hPa 18,4°C 0,0km/h (0Bft) 0,0km/h 0,0l/m² 37,979klx 0,0min
10:25 18,4°C 70,8% 13,0°C 1006,9hPa 18,4°C 0,0km/h (0Bft) 0,0km/h 0,0l/m² 43,934klx 0,0min
10:20 18,3°C 71,5% 13,0°C 1006,9hPa 18,3°C 0,0km/h (0Bft) 0,0km/h 0,0l/m² 43,838klx 0,0min
10:15 18,1°C 71,8% 12,9°C 1007,0hPa 18,1°C 0,0km/h (0Bft) 0,0km/h 0,0l/m² 29,972klx 0,0min
10:10 18,1°C 71,4% 12,9°C 1007,0hPa 18,1°C 0,0km/h (0Bft) 0,0km/h 0,0l/m² 37,569klx 0,0min
10:05 18,2°C 71,4% 13,0°C 1006,9hPa 18,2°C 0,0km/h (0Bft) 0,0km/h 0,0l/m² 47,220klx 0,0min
10:00 17,9°C 72,0% 12,8°C 1006,9hPa 17,9°C 0,0km/h (0Bft) 0,0km/h 0,0l/m² 39,854klx 0,0min
09:55 17,9°C 72,3% 12,8°C 1007,0hPa 17,9°C 0,0km/h (0Bft) 0,0km/h 0,0l/m² 30,718klx 0,0min
09:50 17,9°C 72,5% 12,9°C 1006,9hPa 17,9°C 0,0km/h (0Bft) 0,0km/h 0,0l/m² 41,381klx 0,0min
09:45 17,8°C 72,9% 12,9°C 1006,9hPa 17,8°C 0,0km/h (0Bft) 0,0km/h 0,0l/m² 27,169klx 0,0min
09:40 18,0°C 72,8% 13,0°C 1006,8hPa 18,0°C 0,0km/h (0Bft) 0,0km/h 0,0l/m² 29,824klx 0,0min
09:35 17,6°C 73,8% 12,9°C 1006,8hPa 17,6°C 0,0km/h (0Bft) 0,0km/h 0,0l/m² 39,380klx 0,0min
09:30 17,3°C 75,2% 12,9°C 1006,9hPa 17,3°C 0,0km/h (0Bft) 0,0km/h 0,0l/m² 26,008klx 0,0min
09:25 17,4°C 75,4% 13,0°C 1006,8hPa 17,4°C 0,0km/h (0Bft) 0,0km/h 0,0l/m² 23,188klx 0,0min
09:20 17,3°C 75,6% 12,9°C 1006,8hPa 17,3°C 0,0km/h (0Bft) 0,0km/h 0,0l/m² 22,833klx 0,0min
09:15 17,2°C 75,0% 12,8°C 1006,8hPa 17,2°C 0,0km/h (0Bft) 0,0km/h 0,0l/m² 27,043klx 0,0min
09:10 17,1°C 75,7% 12,8°C 1006,7hPa 17,1°C 0,0km/h (0Bft) 0,0km/h 0,0l/m² 19,973klx 0,0min
09:05 17,2°C 76,1% 12,9°C 1006,5hPa 17,2°C 0,0km/h (0Bft) 0,0km/h 0,0l/m² 20,505klx 0,0min
09:00 17,2°C 75,6% 12,8°C 1006,5hPa 17,2°C 0,0km/h (0Bft) 0,0km/h 0,0l/m² 17,985klx 0,0min
08:55 17,2°C 75,0% 12,7°C 1006,5hPa 17,2°C 0,0km/h (0Bft) 0,0km/h 0,0l/m² 20,771klx 0,0min
08:50 17,2°C 74,6% 12,6°C 1006,4hPa 17,2°C 0,0km/h (0Bft) 0,0km/h 0,0l/m² 22,610klx 0,0min
08:45 17,1°C 75,6% 12,7°C 1006,4hPa 17,1°C 0,0km/h (0Bft) 0,0km/h 0,0l/m² 19,369klx 0,0min
08:40 17,2°C 75,2% 12,8°C 1006,4hPa 17,2°C 0,0km/h (0Bft) 0,0km/h 0,0l/m² 24,182klx 0,0min
08:35 16,8°C 76,3% 12,6°C 1006,3hPa 16,8°C 0,0km/h (0Bft) 0,0km/h 0,0l/m² 16,326klx 0,0min
08:30 16,8°C 76,1% 12,6°C 1006,3hPa 16,8°C 0,0km/h (0Bft) 0,0km/h 0,0l/m² 12,437klx 0,0min
08:25 16,8°C 76,2% 12,6°C 1006,3hPa 16,8°C 0,0km/h (0Bft) 0,0km/h 0,0l/m² 10,452klx 0,0min
08:20 16,8°C 76,1% 12,6°C 1006,2hPa 16,8°C 0,0km/h (0Bft) 0,0km/h 0,0l/m² 12,575klx 0,0min
08:15 16,7°C 76,1% 12,5°C 1006,2hPa 16,7°C 0,0km/h (0Bft) 0,0km/h 0,0l/m² 12,048klx 0,0min
08:10 16,6°C 76,9% 12,5°C 1006,2hPa 16,6°C 0,0km/h (0Bft) 0,0km/h 0,0l/m² 9,500klx 0,0min
08:05 16,6°C 76,3% 12,4°C 1006,2hPa 16,6°C 0,0km/h (0Bft) 0,0km/h 0,0l/m² 5,847klx 0,0min
08:00 16,6°C 76,7% 12,5°C 1006,2hPa 16,6°C 0,0km/h (0Bft) 0,0km/h 0,0l/m² 6,953klx 0,0min
07:55 16,6°C 76,8% 12,5°C 1006,1hPa 16,6°C 0,0km/h (0Bft) 0,0km/h 0,0l/m² 9,871klx 0,0min
07:50 16,6°C 76,9% 12,5°C 1006,1hPa 16,6°C 0,0km/h (0Bft) 0,0km/h 0,0l/m² 8,256klx 0,0min
07:45 16,5°C 76,9% 12,5°C 1006,0hPa 16,5°C 0,0km/h (0Bft) 0,0km/h 0,0l/m² 6,649klx 0,0min
07:40 16,5°C 76,8% 12,4°C 1006,0hPa 16,5°C 0,0km/h (0Bft) 0,0km/h 0,0l/m² 7,256klx 0,0min
07:35 16,5°C 76,6% 12,4°C 1006,0hPa 16,5°C 0,0km/h (0Bft) 0,0km/h 0,0l/m² 6,686klx 0,0min
07:30 16,5°C 76,3% 12,3°C 1005,9hPa 16,5°C 0,0km/h (0Bft) 0,0km/h 0,0l/m² 6,613klx 0,0min
07:25 16,5°C 76,3% 12,3°C 1005,9hPa 16,5°C 0,0km/h (0Bft) 0,0km/h 0,0l/m² 5,338klx 0,0min
07:20 16,4°C 76,5% 12,3°C 1005,9hPa 16,4°C 0,0km/h (0Bft) 0,0km/h 0,0l/m² 3,409klx 0,0min
07:15 16,5°C 75,7% 12,2°C 1005,9hPa 16,5°C 0,0km/h (0Bft) 0,0km/h 0,0l/m² 2,543klx 0,0min
07:10 16,5°C 75,6% 12,2°C 1005,9hPa 16,5°C 0,0km/h (0Bft) 0,0km/h 0,0l/m² 2,836klx 0,0min
07:05 16,4°C 76,0% 12,2°C 1005,8hPa 16,4°C 0,0km/h (0Bft) 0,0km/h 0,0l/m² 5,676klx 0,0min
07:00 16,5°C 75,3% 12,1°C 1005,8hPa 16,5°C 0,0km/h (0Bft) 0,0km/h 0,0l/m² 4,519klx 0,0min
06:55 16,4°C 76,1% 12,2°C 1005,8hPa 16,4°C 0,0km/h (0Bft) 0,0km/h 0,0l/m² 3,058klx 0,0min
06:50 16,4°C 75,6% 12,1°C 1005,8hPa 16,4°C 0,0km/h (0Bft) 0,0km/h 0,0l/m² 1,913klx 0,0min
06:45 16,5°C 75,3% 12,1°C 1005,8hPa 16,5°C 0,0km/h (0Bft) 0,0km/h 0,0l/m² 2,571klx 0,0min
06:40 16,3°C 76,0% 12,1°C 1005,7hPa 16,3°C 0,0km/h (0Bft) 0,0km/h 0,0l/m² 3,720klx 0,0min
06:35 16,4°C 75,2% 12,0°C 1005,7hPa 16,4°C 0,0km/h (0Bft) 0,0km/h 0,0l/m² 2,912klx 0,0min
06:30 16,5°C 74,7% 12,0°C 1005,7hPa 16,5°C 0,0km/h (0Bft) 0,0km/h 0,0l/m² 2,283klx 0,0min
06:25 16,6°C 73,9% 11,9°C 1005,6hPa 16,6°C 0,0km/h (0Bft) 0,0km/h 0,0l/m² 1,995klx 0,0min
06:20 16,7°C 73,3% 11,9°C 1005,5hPa 16,7°C 0,0km/h (0Bft) 0,0km/h 0,0l/m² 1,541klx 0,0min
06:15 16,7°C 73,5% 12,0°C 1005,5hPa 16,7°C 0,0km/h (0Bft) 0,0km/h 0,0l/m² 1,148klx 0,0min
06:10 16,8°C 73,0% 11,9°C 1005,5hPa 16,8°C 0,0km/h (0Bft) 0,0km/h 0,0l/m² 0,684klx 0,0min
06:05 16,8°C 72,5% 11,9°C 1005,5hPa 16,8°C 0,0km/h (0Bft) 0,0km/h 0,0l/m² 0,348klx 0,0min
06:00 16,8°C 72,8% 11,9°C 1005,5hPa 16,8°C 0,0km/h (0Bft) 0,0km/h 0,0l/m² 0,224klx 0,0min
05:55 16,9°C 72,7% 11,9°C 1005,5hPa 16,9°C 0,0km/h (0Bft) 0,0km/h 0,0l/m² 0,183klx 0,0min
05:50 16,9°C 72,4% 11,9°C 1005,4hPa 16,9°C 0,0km/h (0Bft) 0,0km/h 0,0l/m² 0,105klx 0,0min
05:45 16,8°C 72,6% 11,9°C 1005,4hPa 16,8°C 0,0km/h (0Bft) 0,0km/h 0,0l/m² 0,115klx 0,0min
05:40 16,9°C 72,6% 11,9°C 1005,4hPa 16,9°C 0,0km/h (0Bft) 0,0km/h 0,0l/m² 0,061klx 0,0min
05:35 16,8°C 73,5% 12,0°C 1005,4hPa 16,8°C 0,0km/h (0Bft) 0,0km/h 0,0l/m² 0,021klx 0,0min
05:30 16,7°C 73,8% 12,0°C 1005,4hPa 16,7°C 0,0km/h (0Bft) 0,0km/h 0,0l/m² 0,014klx 0,0min
05:25 16,7°C 74,1% 12,1°C 1005,4hPa 16,7°C 0,0km/h (0Bft) 0,0km/h 0,0l/m² 0,006klx 0,0min
05:20 16,7°C 73,8% 12,0°C 1005,4hPa 16,7°C 0,0km/h (0Bft) 0,0km/h 0,0l/m² 0,003klx 0,0min
05:15 16,7°C 73,6% 12,0°C 1005,5hPa 16,7°C 0,0km/h (0Bft) 0,0km/h 0,0l/m² 0,002klx 0,0min
05:10 16,7°C 74,5% 12,1°C 1005,5hPa 16,7°C 0,0km/h (0Bft) 0,0km/h 0,0l/m² 0,001klx 0,0min
05:05 16,7°C 74,2% 12,0°C 1005,6hPa 16,7°C 0,0km/h (0Bft) 0,0km/h 0,0l/m² 0,001klx 0,0min
05:00 16,6°C 74,5% 12,1°C 1005,7hPa 16,6°C 0,0km/h (0Bft) 0,0km/h 0,0l/m² 0,001klx 0,0min
04:55 16,6°C 74,1% 12,0°C 1005,7hPa 16,6°C 0,0km/h (0Bft) 0,0km/h 0,0l/m² 0,001klx 0,0min
04:50 16,6°C 74,5% 12,1°C 1005,7hPa 16,6°C 0,0km/h (0Bft) 0,0km/h 0,0l/m² 0,000klx 0,0min
04:45 16,7°C 74,1% 12,1°C 1005,7hPa 16,7°C 0,0km/h (0Bft) 0,0km/h 0,0l/m² 0,001klx 0,0min
04:40 16,9°C 73,4% 12,1°C 1005,8hPa 16,9°C 0,0km/h (0Bft) 0,0km/h 0,0l/m² 0,000klx 0,0min
04:35 16,9°C 73,4% 12,1°C 1005,8hPa 16,9°C 0,0km/h (0Bft) 0,0km/h 0,0l/m² 0,000klx 0,0min
04:30 16,9°C 73,2% 12,1°C 1005,9hPa 16,9°C 0,0km/h (0Bft) 0,0km/h 0,0l/m² 0,000klx 0,0min
04:25 16,9°C 73,0% 12,1°C 1005,8hPa 16,9°C 0,0km/h (0Bft) 0,0km/h 0,0l/m² 0,000klx 0,0min
04:20 16,9°C 73,3% 12,1°C 1005,8hPa 16,9°C 0,0km/h (0Bft) 0,0km/h 0,0l/m² 0,000klx 0,0min
04:15 16,9°C 72,8% 12,0°C 1005,8hPa 16,9°C 0,0km/h (0Bft) 0,0km/h 0,0l/m² 0,000klx 0,0min
04:10 16,9°C 72,6% 11,9°C 1005,8hPa 16,9°C 0,0km/h (0Bft) 0,0km/h 0,0l/m² 0,000klx 0,0min
04:05 16,9°C 72,9% 12,0°C 1005,9hPa 16,9°C 0,0km/h (0Bft) 0,0km/h 0,0l/m² 0,000klx 0,0min
04:00 16,9°C 72,7% 11,9°C 1005,9hPa 16,9°C 0,0km/h (0Bft) 0,0km/h 0,0l/m² 0,000klx 0,0min
03:55 16,8°C 73,6% 12,0°C 1005,9hPa 16,8°C 0,0km/h (0Bft) 0,0km/h 0,0l/m² 0,000klx 0,0min
03:50 16,9°C 72,2% 11,8°C 1005,9hPa 16,9°C 0,0km/h (0Bft) 0,0km/h 0,0l/m² 0,000klx 0,0min
03:45 16,9°C 71,9% 11,8°C 1005,9hPa 16,9°C 0,0km/h (0Bft) 0,0km/h 0,0l/m² 0,000klx 0,0min
03:40 17,0°C 71,4% 11,8°C 1005,8hPa 17,0°C 0,0km/h (0Bft) 0,0km/h 0,0l/m² 0,000klx 0,0min
03:35 17,1°C 70,8% 11,7°C 1005,8hPa 17,1°C 0,0km/h (0Bft) 0,0km/h 0,0l/m² 0,000klx 0,0min
03:30 17,1°C 71,1% 11,8°C 1005,9hPa 17,1°C 0,0km/h (0Bft) 0,0km/h 0,0l/m² 0,000klx 0,0min
03:25 17,1°C 70,6% 11,7°C 1005,9hPa 17,1°C 0,0km/h (0Bft) 0,0km/h 0,0l/m² 0,000klx 0,0min
03:20 17,1°C 70,4% 11,7°C 1005,9hPa 17,1°C 0,0km/h (0Bft) 0,0km/h 0,0l/m² 0,000klx 0,0min
03:15 17,0°C 71,0% 11,7°C 1005,9hPa 17,0°C 0,0km/h (0Bft) 0,0km/h 0,0l/m² 0,000klx 0,0min
03:10 17,1°C 70,4% 11,6°C 1005,9hPa 17,1°C 0,0km/h (0Bft) 0,0km/h 0,0l/m² 0,000klx 0,0min
03:05 17,1°C 69,8% 11,5°C 1005,9hPa 17,1°C 0,0km/h (0Bft) 0,0km/h 0,0l/m² 0,000klx 0,0min
03:00 17,1°C 70,1% 11,6°C 1005,9hPa 17,1°C 0,0km/h (0Bft) 0,0km/h 0,0l/m² 0,000klx 0,0min
02:55 17,0°C 70,1% 11,5°C 1005,9hPa 17,0°C 0,0km/h (0Bft) 0,0km/h 0,0l/m² 0,000klx 0,0min
02:50 17,0°C 69,9% 11,5°C 1006,0hPa 17,0°C 0,0km/h (0Bft) 0,0km/h 0,0l/m² 0,000klx 0,0min
02:45 17,0°C 70,2% 11,5°C 1006,0hPa 17,0°C 0,0km/h (0Bft) 0,0km/h 0,0l/m² 0,000klx 0,0min
02:40 16,9°C 69,8% 11,4°C 1006,0hPa 16,9°C 0,0km/h (0Bft) 0,0km/h 0,0l/m² 0,000klx 0,0min
02:35 16,9°C 69,9% 11,3°C 1006,0hPa 16,9°C 0,0km/h (0Bft) 0,0km/h 0,0l/m² 0,000klx 0,0min
02:30 16,8°C 70,8% 11,4°C 1006,0hPa 16,8°C 0,0km/h (0Bft) 0,0km/h 0,0l/m² 0,000klx 0,0min
02:25 16,9°C 70,2% 11,4°C 1006,0hPa 16,9°C 0,0km/h (0Bft) 0,0km/h 0,0l/m² 0,000klx 0,0min
02:20 16,9°C 70,1% 11,4°C 1006,0hPa 16,9°C 0,0km/h (0Bft) 0,0km/h 0,0l/m² 0,000klx 0,0min
02:15 16,9°C 70,1% 11,4°C 1006,0hPa 16,9°C 0,0km/h (0Bft) 0,0km/h 0,0l/m² 0,000klx 0,0min
02:10 17,0°C 69,6% 11,4°C 1006,0hPa 17,0°C 0,0km/h (0Bft) 0,0km/h 0,0l/m² 0,000klx 0,0min
02:05 17,1°C 68,9% 11,3°C 1006,0hPa 17,1°C 0,0km/h (0Bft) 0,0km/h 0,0l/m² 0,000klx 0,0min
02:00 17,0°C 69,8% 11,4°C 1006,0hPa 17,0°C 0,0km/h (0Bft) 0,0km/h 0,0l/m² 0,000klx 0,0min
01:55 17,1°C 68,9% 11,4°C 1006,1hPa 17,1°C 0,0km/h (0Bft) 0,0km/h 0,0l/m² 0,000klx 0,0min
01:50 17,2°C 68,8% 11,4°C 1006,1hPa 17,2°C 0,0km/h (0Bft) 0,0km/h 0,0l/m² 0,000klx 0,0min
01:45 17,1°C 69,6% 11,5°C 1006,1hPa 17,1°C 0,0km/h (0Bft) 0,0km/h 0,0l/m² 0,000klx 0,0min
01:40 17,1°C 69,3% 11,4°C 1006,1hPa 17,1°C 0,0km/h (0Bft) 0,0km/h 0,0l/m² 0,000klx 0,0min
01:35 17,1°C 68,7% 11,3°C 1006,1hPa 17,1°C 0,0km/h (0Bft) 0,0km/h 0,0l/m² 0,000klx 0,0min
01:30 16,9°C 70,2% 11,5°C 1006,1hPa 16,9°C 0,0km/h (0Bft) 0,0km/h 0,0l/m² 0,000klx 0,0min
01:25 16,9°C 70,3% 11,5°C 1006,1hPa 16,9°C 0,0km/h (0Bft) 0,0km/h 0,0l/m² 0,000klx 0,0min
01:20 16,9°C 70,3% 11,5°C 1006,2hPa 16,9°C 0,0km/h (0Bft) 0,0km/h 0,0l/m² 0,000klx 0,0min
01:15 16,9°C 71,2% 11,6°C 1006,2hPa 16,9°C 0,0km/h (0Bft) 0,0km/h 0,0l/m² 0,000klx 0,0min
01:10 17,1°C 70,6% 11,7°C 1006,1hPa 17,1°C 0,0km/h (0Bft) 0,0km/h 0,0l/m² 0,000klx 0,0min
01:05 17,1°C 70,4% 11,7°C 1006,1hPa 17,1°C 0,0km/h (0Bft) 0,0km/h 0,0l/m² 0,000klx 0,0min
01:00 17,2°C 69,8% 11,6°C 1006,1hPa 17,2°C 0,0km/h (0Bft) 0,0km/h 0,0l/m² 0,000klx 0,0min
00:55 17,2°C 70,2% 11,7°C 1006,1hPa 17,2°C 0,0km/h (0Bft) 0,0km/h 0,0l/m² 0,000klx 0,0min
00:50 17,1°C 71,0% 11,8°C 1006,2hPa 17,1°C 0,0km/h (0Bft) 0,0km/h 0,0l/m² 0,000klx 0,0min
00:45 17,2°C 71,1% 11,9°C 1006,2hPa 17,2°C 0,0km/h (0Bft) 0,0km/h 0,0l/m² 0,000klx 0,0min
00:40 17,3°C 70,5% 11,9°C 1006,1hPa 17,3°C 0,0km/h (0Bft) 0,0km/h 0,0l/m² 0,000klx 0,0min
00:35 17,2°C 71,0% 11,9°C 1006,2hPa 17,2°C 0,0km/h (0Bft) 0,0km/h 0,0l/m² 0,000klx 0,0min
00:30 17,2°C 72,0% 12,1°C 1006,2hPa 17,2°C 0,0km/h (0Bft) 0,0km/h 0,0l/m² 0,000klx 0,0min
00:25 17,3°C 72,1% 12,2°C 1006,2hPa 17,3°C 0,0km/h (0Bft) 0,0km/h 0,0l/m² 0,000klx 0,0min
00:20 17,4°C 71,0% 12,1°C 1006,3hPa 17,4°C 0,0km/h (0Bft) 0,0km/h 0,0l/m² 0,000klx 0,0min
00:15 17,2°C 74,4% 12,6°C 1006,2hPa 17,2°C 0,0km/h (0Bft) 0,0km/h 0,0l/m² 0,000klx 0,0min
00:10 17,1°C 75,8% 12,8°C 1006,3hPa 17,1°C 0,0km/h (0Bft) 0,0km/h 0,0l/m² 0,000klx 0,0min
00:05 17,2°C 76,3% 13,0°C 1006,3hPa 17,2°C 0,0km/h (0Bft) 0,0km/h 0,0l/m² 0,000klx 0,0min
00:00 17,1°C 78,0% 13,2°C 1006,3hPa 17,1°C 0,0km/h (0Bft) 0,0km/h 0,0l/m² 0,000klx 0,0min

Aktuelle Wetterdaten

31.07.2021 14:30 Uhr